sensor_id;sensor_type;location;lat;lon;timestamp;P1;durP1;ratioP1;P2;durP2;ratioP2
18838;SDS011;9548;56.920;14.804;2022-08-24T00:00:57;2.53;;;1.10;;
18838;SDS011;9548;56.920;14.804;2022-08-24T00:03:24;4.10;;;1.10;;
18838;SDS011;9548;56.920;14.804;2022-08-24T00:05:51;1.65;;;1.00;;
18838;SDS011;9548;56.920;14.804;2022-08-24T00:08:19;1.20;;;1.10;;
18838;SDS011;9548;56.920;14.804;2022-08-24T00:10:46;2.83;;;1.27;;
18838;SDS011;9548;56.920;14.804;2022-08-24T00:13:14;1.80;;;0.90;;
18838;SDS011;9548;56.920;14.804;2022-08-24T00:15:41;4.47;;;1.25;;
18838;SDS011;9548;56.920;14.804;2022-08-24T00:18:09;2.05;;;1.13;;
18838;SDS011;9548;56.920;14.804;2022-08-24T00:20:36;3.45;;;1.00;;
18838;SDS011;9548;56.920;14.804;2022-08-24T00:23:04;1.65;;;1.00;;
18838;SDS011;9548;56.920;14.804;2022-08-24T00:25:31;1.33;;;1.00;;
18838;SDS011;9548;56.920;14.804;2022-08-24T00:27:59;1.13;;;1.00;;
18838;SDS011;9548;56.920;14.804;2022-08-24T00:30:28;2.53;;;1.20;;
18838;SDS011;9548;56.920;14.804;2022-08-24T00:32:55;1.65;;;0.85;;
18838;SDS011;9548;56.920;14.804;2022-08-24T00:35:22;1.58;;;1.17;;
18838;SDS011;9548;56.920;14.804;2022-08-24T00:37:50;4.55;;;0.95;;
18838;SDS011;9548;56.920;14.804;2022-08-24T00:40:21;4.30;;;1.00;;
18838;SDS011;9548;56.920;14.804;2022-08-24T00:42:50;3.08;;;0.93;;
18838;SDS011;9548;56.920;14.804;2022-08-24T00:45:18;1.63;;;1.23;;
18838;SDS011;9548;56.920;14.804;2022-08-24T00:47:47;2.95;;;1.08;;
18838;SDS011;9548;56.920;14.804;2022-08-24T00:50:22;2.90;;;1.00;;
18838;SDS011;9548;56.920;14.804;2022-08-24T00:52:54;2.15;;;1.00;;
18838;SDS011;9548;56.920;14.804;2022-08-24T00:55:25;3.20;;;1.42;;
18838;SDS011;9548;56.920;14.804;2022-08-24T00:57:56;2.33;;;1.23;;
18838;SDS011;9548;56.920;14.804;2022-08-24T01:00:26;4.80;;;1.30;;
18838;SDS011;9548;56.920;14.804;2022-08-24T01:02:58;4.57;;;1.30;;
18838;SDS011;9548;56.920;14.804;2022-08-24T01:05:28;1.80;;;1.15;;
18838;SDS011;9548;56.920;14.804;2022-08-24T01:07:56;6.05;;;1.30;;
18838;SDS011;9548;56.920;14.804;2022-08-24T01:10:24;2.15;;;1.17;;
18838;SDS011;9548;56.920;14.804;2022-08-24T01:12:53;2.55;;;1.38;;
18838;SDS011;9548;56.920;14.804;2022-08-24T01:15:23;4.97;;;1.30;;
18838;SDS011;9548;56.920;14.804;2022-08-24T01:17:50;1.55;;;1.27;;
18838;SDS011;9548;56.920;14.804;2022-08-24T01:20:36;2.55;;;1.50;;
18838;SDS011;9548;56.920;14.804;2022-08-24T01:23:04;1.40;;;1.20;;
18838;SDS011;9548;56.920;14.804;2022-08-24T01:25:36;2.40;;;1.30;;
18838;SDS011;9548;56.920;14.804;2022-08-24T01:28:09;3.13;;;1.25;;
18838;SDS011;9548;56.920;14.804;2022-08-24T01:30:39;2.80;;;1.80;;
18838;SDS011;9548;56.920;14.804;2022-08-24T01:33:08;2.60;;;1.30;;
18838;SDS011;9548;56.920;14.804;2022-08-24T01:35:37;4.40;;;1.30;;
18838;SDS011;9548;56.920;14.804;2022-08-24T01:38:06;2.50;;;1.58;;
18838;SDS011;9548;56.920;14.804;2022-08-24T01:40:39;4.00;;;1.33;;
18838;SDS011;9548;56.920;14.804;2022-08-24T01:43:10;2.60;;;1.15;;
18838;SDS011;9548;56.920;14.804;2022-08-24T01:45:39;2.53;;;1.58;;
18838;SDS011;9548;56.920;14.804;2022-08-24T01:48:06;3.88;;;1.58;;
18838;SDS011;9548;56.920;14.804;2022-08-24T01:50:33;3.95;;;1.50;;
18838;SDS011;9548;56.920;14.804;2022-08-24T01:53:01;3.90;;;1.40;;
18838;SDS011;9548;56.920;14.804;2022-08-24T01:55:30;1.63;;;1.13;;
18838;SDS011;9548;56.920;14.804;2022-08-24T01:57:59;2.25;;;1.05;;
18838;SDS011;9548;56.920;14.804;2022-08-24T02:00:26;3.70;;;1.50;;
18838;SDS011;9548;56.920;14.804;2022-08-24T02:02:54;4.15;;;1.10;;
18838;SDS011;9548;56.920;14.804;2022-08-24T02:05:21;3.70;;;1.40;;
18838;SDS011;9548;56.920;14.804;2022-08-24T02:07:49;1.95;;;1.30;;
18838;SDS011;9548;56.920;14.804;2022-08-24T02:10:17;3.20;;;1.30;;
18838;SDS011;9548;56.920;14.804;2022-08-24T02:12:45;2.05;;;1.40;;
18838;SDS011;9548;56.920;14.804;2022-08-24T02:15:23;2.67;;;1.58;;
18838;SDS011;9548;56.920;14.804;2022-08-24T02:17:52;3.50;;;1.40;;
18838;SDS011;9548;56.920;14.804;2022-08-24T02:20:19;3.67;;;1.38;;
18838;SDS011;9548;56.920;14.804;2022-08-24T02:22:47;1.92;;;1.27;;
18838;SDS011;9548;56.920;14.804;2022-08-24T02:25:15;4.70;;;1.60;;
18838;SDS011;9548;56.920;14.804;2022-08-24T02:27:42;3.10;;;1.40;;
18838;SDS011;9548;56.920;14.804;2022-08-24T02:30:10;3.25;;;1.40;;
18838;SDS011;9548;56.920;14.804;2022-08-24T02:32:39;2.38;;;1.52;;
18838;SDS011;9548;56.920;14.804;2022-08-24T02:35:06;2.63;;;1.33;;
18838;SDS011;9548;56.920;14.804;2022-08-24T02:37:34;1.63;;;1.10;;
18838;SDS011;9548;56.920;14.804;2022-08-24T02:40:02;3.00;;;1.70;;
18838;SDS011;9548;56.920;14.804;2022-08-24T02:42:29;4.97;;;1.27;;
18838;SDS011;9548;56.920;14.804;2022-08-24T02:44:56;6.05;;;1.20;;
18838;SDS011;9548;56.920;14.804;2022-08-24T02:47:25;4.00;;;1.40;;
18838;SDS011;9548;56.920;14.804;2022-08-24T02:49:53;3.42;;;1.15;;
18838;SDS011;9548;56.920;14.804;2022-08-24T02:52:21;3.00;;;1.23;;
18838;SDS011;9548;56.920;14.804;2022-08-24T02:54:48;2.22;;;1.30;;
18838;SDS011;9548;56.920;14.804;2022-08-24T02:57:15;1.95;;;1.17;;
18838;SDS011;9548;56.920;14.804;2022-08-24T02:59:42;3.70;;;1.60;;
18838;SDS011;9548;56.920;14.804;2022-08-24T03:02:09;2.22;;;1.30;;
18838;SDS011;9548;56.920;14.804;2022-08-24T03:04:36;1.55;;;1.30;;
18838;SDS011;9548;56.920;14.804;2022-08-24T03:07:05;2.72;;;1.30;;
18838;SDS011;9548;56.920;14.804;2022-08-24T03:09:32;2.60;;;1.35;;
18838;SDS011;9548;56.920;14.804;2022-08-24T03:11:59;3.17;;;1.30;;
18838;SDS011;9548;56.920;14.804;2022-08-24T03:14:26;4.72;;;1.50;;
18838;SDS011;9548;56.920;14.804;2022-08-24T03:16:53;7.82;;;1.70;;
18838;SDS011;9548;56.920;14.804;2022-08-24T03:19:20;1.65;;;1.33;;
18838;SDS011;9548;56.920;14.804;2022-08-24T03:21:47;2.80;;;1.50;;
18838;SDS011;9548;56.920;14.804;2022-08-24T03:24:16;4.57;;;1.33;;
18838;SDS011;9548;56.920;14.804;2022-08-24T03:26:43;1.73;;;1.20;;
18838;SDS011;9548;56.920;14.804;2022-08-24T03:29:10;4.45;;;1.30;;
18838;SDS011;9548;56.920;14.804;2022-08-24T03:31:37;1.60;;;1.08;;
18838;SDS011;9548;56.920;14.804;2022-08-24T03:34:04;3.22;;;1.15;;
18838;SDS011;9548;56.920;14.804;2022-08-24T03:36:31;2.38;;;1.30;;
18838;SDS011;9548;56.920;14.804;2022-08-24T03:38:58;3.38;;;1.52;;
18838;SDS011;9548;56.920;14.804;2022-08-24T03:41:26;2.13;;;1.30;;
18838;SDS011;9548;56.920;14.804;2022-08-24T03:43:53;3.33;;;1.35;;
18838;SDS011;9548;56.920;14.804;2022-08-24T03:46:21;1.95;;;1.35;;
18838;SDS011;9548;56.920;14.804;2022-08-24T03:48:51;2.67;;;1.15;;
18838;SDS011;9548;56.920;14.804;2022-08-24T03:51:19;3.80;;;1.52;;
18838;SDS011;9548;56.920;14.804;2022-08-24T03:53:48;1.27;;;1.15;;
18838;SDS011;9548;56.920;14.804;2022-08-24T03:56:16;2.65;;;1.40;;
18838;SDS011;9548;56.920;14.804;2022-08-24T03:58:45;1.50;;;1.40;;
18838;SDS011;9548;56.920;14.804;2022-08-24T04:01:13;6.07;;;1.48;;
18838;SDS011;9548;56.920;14.804;2022-08-24T04:03:42;2.17;;;1.60;;
18838;SDS011;9548;56.920;14.804;2022-08-24T04:06:10;2.03;;;1.30;;
18838;SDS011;9548;56.920;14.804;2022-08-24T04:08:38;2.47;;;1.77;;
18838;SDS011;9548;56.920;14.804;2022-08-24T04:11:08;3.28;;;1.58;;
18838;SDS011;9548;56.920;14.804;2022-08-24T04:13:36;2.13;;;1.40;;
18838;SDS011;9548;56.920;14.804;2022-08-24T04:16:05;2.85;;;1.48;;
18838;SDS011;9548;56.920;14.804;2022-08-24T04:18:33;5.97;;;1.52;;
18838;SDS011;9548;56.920;14.804;2022-08-24T04:21:00;2.45;;;1.52;;
18838;SDS011;9548;56.920;14.804;2022-08-24T04:23:28;5.47;;;1.80;;
18838;SDS011;9548;56.920;14.804;2022-08-24T04:26:00;5.32;;;1.70;;
18838;SDS011;9548;56.920;14.804;2022-08-24T04:28:29;3.95;;;1.70;;
18838;SDS011;9548;56.920;14.804;2022-08-24T04:30:56;4.22;;;1.48;;
18838;SDS011;9548;56.920;14.804;2022-08-24T04:33:26;5.05;;;1.73;;
18838;SDS011;9548;56.920;14.804;2022-08-24T04:35:53;7.25;;;1.70;;
18838;SDS011;9548;56.920;14.804;2022-08-24T04:38:20;3.90;;;1.67;;
18838;SDS011;9548;56.920;14.804;2022-08-24T04:40:47;7.30;;;2.20;;
18838;SDS011;9548;56.920;14.804;2022-08-24T04:43:14;3.88;;;1.80;;
18838;SDS011;9548;56.920;14.804;2022-08-24T04:45:43;4.90;;;1.75;;
18838;SDS011;9548;56.920;14.804;2022-08-24T04:48:11;3.17;;;1.45;;
18838;SDS011;9548;56.920;14.804;2022-08-24T04:50:41;5.68;;;1.83;;
18838;SDS011;9548;56.920;14.804;2022-08-24T04:53:09;3.65;;;1.50;;
18838;SDS011;9548;56.920;14.804;2022-08-24T04:55:40;2.65;;;1.60;;
18838;SDS011;9548;56.920;14.804;2022-08-24T04:58:09;2.65;;;1.40;;
18838;SDS011;9548;56.920;14.804;2022-08-24T05:00:37;3.88;;;1.60;;
18838;SDS011;9548;56.920;14.804;2022-08-24T05:03:04;5.80;;;1.88;;
18838;SDS011;9548;56.920;14.804;2022-08-24T05:05:31;5.05;;;1.73;;
18838;SDS011;9548;56.920;14.804;2022-08-24T05:08:00;3.05;;;1.58;;
18838;SDS011;9548;56.920;14.804;2022-08-24T05:10:27;1.75;;;1.40;;
18838;SDS011;9548;56.920;14.804;2022-08-24T05:12:54;5.63;;;1.60;;
18838;SDS011;9548;56.920;14.804;2022-08-24T05:15:22;6.55;;;1.45;;
18838;SDS011;9548;56.920;14.804;2022-08-24T05:17:48;2.53;;;1.80;;
18838;SDS011;9548;56.920;14.804;2022-08-24T05:20:15;3.22;;;1.45;;
18838;SDS011;9548;56.920;14.804;2022-08-24T05:22:43;3.80;;;1.65;;
18838;SDS011;9548;56.920;14.804;2022-08-24T05:25:11;1.30;;;1.15;;
18838;SDS011;9548;56.920;14.804;2022-08-24T05:27:38;2.83;;;1.48;;
18838;SDS011;9548;56.920;14.804;2022-08-24T05:30:06;1.83;;;1.48;;
18838;SDS011;9548;56.920;14.804;2022-08-24T05:32:35;2.42;;;1.67;;
18838;SDS011;9548;56.920;14.804;2022-08-24T05:35:02;6.90;;;1.50;;
18838;SDS011;9548;56.920;14.804;2022-08-24T05:37:29;2.70;;;1.80;;
18838;SDS011;9548;56.920;14.804;2022-08-24T05:39:56;3.58;;;1.40;;
18838;SDS011;9548;56.920;14.804;2022-08-24T05:42:25;4.50;;;1.33;;
18838;SDS011;9548;56.920;14.804;2022-08-24T05:44:52;4.32;;;1.40;;
18838;SDS011;9548;56.920;14.804;2022-08-24T05:47:19;2.85;;;1.35;;
18838;SDS011;9548;56.920;14.804;2022-08-24T05:49:47;3.88;;;1.30;;
18838;SDS011;9548;56.920;14.804;2022-08-24T05:52:16;3.63;;;1.33;;
18838;SDS011;9548;56.920;14.804;2022-08-24T05:54:43;4.60;;;1.45;;
18838;SDS011;9548;56.920;14.804;2022-08-24T05:57:10;2.70;;;1.45;;
18838;SDS011;9548;56.920;14.804;2022-08-24T05:59:38;3.33;;;1.40;;
18838;SDS011;9548;56.920;14.804;2022-08-24T06:02:05;5.22;;;1.50;;
18838;SDS011;9548;56.920;14.804;2022-08-24T06:04:32;3.85;;;1.33;;
18838;SDS011;9548;56.920;14.804;2022-08-24T06:07:02;1.77;;;1.17;;
18838;SDS011;9548;56.920;14.804;2022-08-24T06:09:29;1.83;;;1.45;;
18838;SDS011;9548;56.920;14.804;2022-08-24T06:11:57;2.22;;;1.35;;
18838;SDS011;9548;56.920;14.804;2022-08-24T06:14:24;2.70;;;1.23;;
18838;SDS011;9548;56.920;14.804;2022-08-24T06:16:53;3.80;;;1.90;;
18838;SDS011;9548;56.920;14.804;2022-08-24T06:19:20;2.35;;;1.08;;
18838;SDS011;9548;56.920;14.804;2022-08-24T06:21:49;3.70;;;1.30;;
18838;SDS011;9548;56.920;14.804;2022-08-24T06:24:17;1.98;;;1.25;;
18838;SDS011;9548;56.920;14.804;2022-08-24T06:27:05;2.97;;;1.20;;
18838;SDS011;9548;56.920;14.804;2022-08-24T06:29:45;3.83;;;1.20;;
18838;SDS011;9548;56.920;14.804;2022-08-24T06:32:14;2.63;;;1.10;;
18838;SDS011;9548;56.920;14.804;2022-08-24T06:34:40;4.22;;;1.17;;
18838;SDS011;9548;56.920;14.804;2022-08-24T06:37:08;3.72;;;1.13;;
18838;SDS011;9548;56.920;14.804;2022-08-24T06:39:34;4.20;;;1.40;;
18838;SDS011;9548;56.920;14.804;2022-08-24T06:42:02;3.28;;;1.33;;
18838;SDS011;9548;56.920;14.804;2022-08-24T06:44:29;3.08;;;1.38;;
18838;SDS011;9548;56.920;14.804;2022-08-24T06:46:56;3.47;;;1.50;;
18838;SDS011;9548;56.920;14.804;2022-08-24T06:49:25;2.85;;;1.08;;
18838;SDS011;9548;56.920;14.804;2022-08-24T06:51:52;1.98;;;1.10;;
18838;SDS011;9548;56.920;14.804;2022-08-24T06:54:19;5.35;;;1.50;;
18838;SDS011;9548;56.920;14.804;2022-08-24T06:56:46;1.73;;;1.23;;
18838;SDS011;9548;56.920;14.804;2022-08-24T06:59:13;7.22;;;1.40;;
18838;SDS011;9548;56.920;14.804;2022-08-24T07:01:40;4.78;;;1.38;;
18838;SDS011;9548;56.920;14.804;2022-08-24T07:04:07;3.53;;;1.10;;
18838;SDS011;9548;56.920;14.804;2022-08-24T07:06:36;3.47;;;1.55;;
18838;SDS011;9548;56.920;14.804;2022-08-24T07:09:03;3.85;;;1.42;;
18838;SDS011;9548;56.920;14.804;2022-08-24T07:11:30;1.58;;;1.08;;
18838;SDS011;9548;56.920;14.804;2022-08-24T07:13:59;2.08;;;1.08;;
18838;SDS011;9548;56.920;14.804;2022-08-24T07:16:26;3.10;;;1.38;;
18838;SDS011;9548;56.920;14.804;2022-08-24T07:18:53;2.72;;;1.35;;
18838;SDS011;9548;56.920;14.804;2022-08-24T07:21:20;1.45;;;0.95;;
18838;SDS011;9548;56.920;14.804;2022-08-24T07:23:49;3.45;;;1.20;;
18838;SDS011;9548;56.920;14.804;2022-08-24T07:26:20;2.17;;;1.30;;
18838;SDS011;9548;56.920;14.804;2022-08-24T07:28:48;3.50;;;1.20;;
18838;SDS011;9548;56.920;14.804;2022-08-24T07:31:15;4.30;;;1.50;;
18838;SDS011;9548;56.920;14.804;2022-08-24T07:33:42;2.63;;;1.30;;
18838;SDS011;9548;56.920;14.804;2022-08-24T07:36:10;1.67;;;0.82;;
18838;SDS011;9548;56.920;14.804;2022-08-24T07:38:39;2.70;;;1.00;;
18838;SDS011;9548;56.920;14.804;2022-08-24T07:41:07;4.05;;;1.10;;
18838;SDS011;9548;56.920;14.804;2022-08-24T07:43:34;2.78;;;0.95;;
18838;SDS011;9548;56.920;14.804;2022-08-24T07:46:02;2.58;;;0.98;;
18838;SDS011;9548;56.920;14.804;2022-08-24T07:48:30;2.08;;;1.00;;
18838;SDS011;9548;56.920;14.804;2022-08-24T07:50:57;3.40;;;0.93;;
18838;SDS011;9548;56.920;14.804;2022-08-24T07:53:31;2.33;;;1.02;;
18838;SDS011;9548;56.920;14.804;2022-08-24T07:55:58;3.88;;;1.30;;
18838;SDS011;9548;56.920;14.804;2022-08-24T07:58:26;2.72;;;1.05;;
18838;SDS011;9548;56.920;14.804;2022-08-24T08:00:53;2.97;;;1.17;;
18838;SDS011;9548;56.920;14.804;2022-08-24T08:03:20;1.27;;;0.80;;
18838;SDS011;9548;56.920;14.804;2022-08-24T08:05:49;3.90;;;0.98;;
18838;SDS011;9548;56.920;14.804;2022-08-24T08:08:22;3.70;;;0.85;;
18838;SDS011;9548;56.920;14.804;2022-08-24T08:10:49;3.00;;;1.00;;
18838;SDS011;9548;56.920;14.804;2022-08-24T08:13:16;3.40;;;1.15;;
18838;SDS011;9548;56.920;14.804;2022-08-24T08:15:45;1.80;;;0.80;;
18838;SDS011;9548;56.920;14.804;2022-08-24T08:18:12;3.50;;;0.90;;
18838;SDS011;9548;56.920;14.804;2022-08-24T08:20:40;1.17;;;0.82;;
18838;SDS011;9548;56.920;14.804;2022-08-24T08:23:08;4.75;;;0.98;;
18838;SDS011;9548;56.920;14.804;2022-08-24T08:25:53;4.57;;;0.80;;
18838;SDS011;9548;56.920;14.804;2022-08-24T08:28:22;2.28;;;1.00;;
18838;SDS011;9548;56.920;14.804;2022-08-24T08:30:51;2.72;;;0.98;;
18838;SDS011;9548;56.920;14.804;2022-08-24T08:33:18;2.67;;;0.90;;
18838;SDS011;9548;56.920;14.804;2022-08-24T08:35:46;5.25;;;1.02;;
18838;SDS011;9548;56.920;14.804;2022-08-24T08:38:14;2.15;;;0.90;;
18838;SDS011;9548;56.920;14.804;2022-08-24T08:40:45;5.97;;;1.05;;
18838;SDS011;9548;56.920;14.804;2022-08-24T08:43:26;4.78;;;0.90;;
18838;SDS011;9548;56.920;14.804;2022-08-24T08:46:12;3.72;;;0.85;;
18838;SDS011;9548;56.920;14.804;2022-08-24T08:48:57;1.42;;;0.80;;
18838;SDS011;9548;56.920;14.804;2022-08-24T08:54:56;2.45;;;0.98;;
18838;SDS011;9548;56.920;14.804;2022-08-24T08:57:42;1.13;;;0.80;;
18838;SDS011;9548;56.920;14.804;2022-08-24T09:00:17;3.38;;;0.80;;
18838;SDS011;9548;56.920;14.804;2022-08-24T09:05:57;1.48;;;0.75;;
18838;SDS011;9548;56.920;14.804;2022-08-24T09:08:39;4.57;;;0.80;;
18838;SDS011;9548;56.920;14.804;2022-08-24T09:11:22;2.17;;;0.93;;
18838;SDS011;9548;56.920;14.804;2022-08-24T09:14:03;1.88;;;1.10;;
18838;SDS011;9548;56.920;14.804;2022-08-24T09:16:55;1.80;;;0.98;;
18838;SDS011;9548;56.920;14.804;2022-08-24T09:19:37;4.95;;;0.70;;
18838;SDS011;9548;56.920;14.804;2022-08-24T09:22:15;3.28;;;0.68;;
18838;SDS011;9548;56.920;14.804;2022-08-24T09:24:53;2.15;;;0.70;;
18838;SDS011;9548;56.920;14.804;2022-08-24T09:27:34;1.20;;;0.70;;
18838;SDS011;9548;56.920;14.804;2022-08-24T09:30:08;0.60;;;0.60;;
18838;SDS011;9548;56.920;14.804;2022-08-24T09:32:45;2.75;;;0.75;;
18838;SDS011;9548;56.920;14.804;2022-08-24T09:35:45;1.98;;;0.70;;
18838;SDS011;9548;56.920;14.804;2022-08-24T09:38:34;1.80;;;0.80;;
18838;SDS011;9548;56.920;14.804;2022-08-24T09:44:38;2.38;;;0.60;;
18838;SDS011;9548;56.920;14.804;2022-08-24T09:47:31;2.30;;;0.77;;
18838;SDS011;9548;56.920;14.804;2022-08-24T09:50:25;3.30;;;0.77;;
18838;SDS011;9548;56.920;14.804;2022-08-24T09:56:23;1.25;;;0.70;;
18838;SDS011;9548;56.920;14.804;2022-08-24T09:59:06;2.00;;;0.50;;
18838;SDS011;9548;56.920;14.804;2022-08-24T10:01:47;1.27;;;0.68;;
18838;SDS011;9548;56.920;14.804;2022-08-24T10:04:40;0.90;;;0.60;;
18838;SDS011;9548;56.920;14.804;2022-08-24T10:07:13;1.92;;;0.70;;
18838;SDS011;9548;56.920;14.804;2022-08-24T10:10:02;1.45;;;0.70;;
18838;SDS011;9548;56.920;14.804;2022-08-24T10:12:48;2.53;;;0.70;;
18838;SDS011;9548;56.920;14.804;2022-08-24T10:15:25;1.55;;;0.70;;
18838;SDS011;9548;56.920;14.804;2022-08-24T10:18:04;1.35;;;0.80;;
18838;SDS011;9548;56.920;14.804;2022-08-24T10:20:57;2.83;;;0.80;;
18838;SDS011;9548;56.920;14.804;2022-08-24T10:23:40;1.40;;;0.80;;
18838;SDS011;9548;56.920;14.804;2022-08-24T10:26:22;2.70;;;0.88;;
18838;SDS011;9548;56.920;14.804;2022-08-24T10:29:05;1.00;;;0.60;;
18838;SDS011;9548;56.920;14.804;2022-08-24T10:31:47;2.83;;;0.50;;
18838;SDS011;9548;56.920;14.804;2022-08-24T10:34:31;2.83;;;0.82;;
18838;SDS011;9548;56.920;14.804;2022-08-24T10:37:19;1.67;;;0.80;;
18838;SDS011;9548;56.920;14.804;2022-08-24T10:40:06;3.03;;;0.70;;
18838;SDS011;9548;56.920;14.804;2022-08-24T10:42:51;3.10;;;0.60;;
18838;SDS011;9548;56.920;14.804;2022-08-24T10:45:59;2.47;;;0.63;;
18838;SDS011;9548;56.920;14.804;2022-08-24T10:48:58;1.95;;;0.60;;
18838;SDS011;9548;56.920;14.804;2022-08-24T10:51:49;1.55;;;0.60;;
18838;SDS011;9548;56.920;14.804;2022-08-24T10:54:33;2.22;;;0.68;;
18838;SDS011;9548;56.920;14.804;2022-08-24T10:57:03;1.65;;;0.80;;
18838;SDS011;9548;56.920;14.804;2022-08-24T10:59:35;4.63;;;0.80;;
18838;SDS011;9548;56.920;14.804;2022-08-24T11:02:09;2.75;;;0.60;;
18838;SDS011;9548;56.920;14.804;2022-08-24T11:04:54;1.27;;;0.70;;
18838;SDS011;9548;56.920;14.804;2022-08-24T11:07:22;4.68;;;1.13;;
18838;SDS011;9548;56.920;14.804;2022-08-24T11:09:50;1.30;;;0.52;;
18838;SDS011;9548;56.920;14.804;2022-08-24T11:12:21;6.70;;;0.65;;
18838;SDS011;9548;56.920;14.804;2022-08-24T11:14:53;1.27;;;0.50;;
18838;SDS011;9548;56.920;14.804;2022-08-24T11:17:23;1.65;;;0.70;;
18838;SDS011;9548;56.920;14.804;2022-08-24T11:19:52;2.33;;;0.50;;
18838;SDS011;9548;56.920;14.804;2022-08-24T11:22:27;1.00;;;0.50;;
18838;SDS011;9548;56.920;14.804;2022-08-24T11:25:03;3.30;;;0.85;;
18838;SDS011;9548;56.920;14.804;2022-08-24T11:27:36;1.63;;;0.85;;
18838;SDS011;9548;56.920;14.804;2022-08-24T11:30:07;1.92;;;0.60;;
18838;SDS011;9548;56.920;14.804;2022-08-24T11:32:40;2.38;;;0.90;;
18838;SDS011;9548;56.920;14.804;2022-08-24T11:35:14;1.30;;;0.68;;
18838;SDS011;9548;56.920;14.804;2022-08-24T11:37:48;3.40;;;0.45;;
18838;SDS011;9548;56.920;14.804;2022-08-24T11:40:17;1.02;;;0.70;;
18838;SDS011;9548;56.920;14.804;2022-08-24T11:42:51;1.08;;;0.40;;
18838;SDS011;9548;56.920;14.804;2022-08-24T11:45:32;1.65;;;0.60;;
18838;SDS011;9548;56.920;14.804;2022-08-24T11:48:05;2.60;;;0.70;;
18838;SDS011;9548;56.920;14.804;2022-08-24T11:50:44;1.83;;;0.63;;
18838;SDS011;9548;56.920;14.804;2022-08-24T11:53:21;2.25;;;0.60;;
18838;SDS011;9548;56.920;14.804;2022-08-24T11:55:56;1.50;;;0.70;;
18838;SDS011;9548;56.920;14.804;2022-08-24T11:58:34;2.22;;;0.70;;
18838;SDS011;9548;56.920;14.804;2022-08-24T12:01:17;1.13;;;0.60;;
18838;SDS011;9548;56.920;14.804;2022-08-24T12:03:50;1.35;;;0.55;;
18838;SDS011;9548;56.920;14.804;2022-08-24T12:06:34;1.80;;;0.70;;
18838;SDS011;9548;56.920;14.804;2022-08-24T12:09:12;3.58;;;0.75;;
18838;SDS011;9548;56.920;14.804;2022-08-24T12:11:50;0.98;;;0.57;;
18838;SDS011;9548;56.920;14.804;2022-08-24T12:14:28;0.73;;;0.70;;
18838;SDS011;9548;56.920;14.804;2022-08-24T12:17:03;2.15;;;1.00;;
18838;SDS011;9548;56.920;14.804;2022-08-24T12:19:35;2.35;;;0.65;;
18838;SDS011;9548;56.920;14.804;2022-08-24T12:22:06;1.98;;;0.77;;
18838;SDS011;9548;56.920;14.804;2022-08-24T12:24:38;1.73;;;0.70;;
18838;SDS011;9548;56.920;14.804;2022-08-24T12:27:09;1.10;;;0.60;;
18838;SDS011;9548;56.920;14.804;2022-08-24T12:29:40;1.00;;;0.68;;
18838;SDS011;9548;56.920;14.804;2022-08-24T12:32:12;3.45;;;0.70;;
18838;SDS011;9548;56.920;14.804;2022-08-24T12:34:45;1.55;;;0.88;;
18838;SDS011;9548;56.920;14.804;2022-08-24T12:37:18;5.82;;;0.80;;
18838;SDS011;9548;56.920;14.804;2022-08-24T12:39:52;1.10;;;0.60;;
18838;SDS011;9548;56.920;14.804;2022-08-24T12:42:26;1.65;;;0.80;;
18838;SDS011;9548;56.920;14.804;2022-08-24T12:45:00;0.50;;;0.50;;
18838;SDS011;9548;56.920;14.804;2022-08-24T12:47:33;1.15;;;0.70;;
18838;SDS011;9548;56.920;14.804;2022-08-24T12:50:04;1.17;;;0.75;;
18838;SDS011;9548;56.920;14.804;2022-08-24T12:52:43;0.73;;;0.63;;
18838;SDS011;9548;56.920;14.804;2022-08-24T12:55:41;4.88;;;1.00;;
18838;SDS011;9548;56.920;14.804;2022-08-24T12:58:23;5.72;;;0.90;;
18838;SDS011;9548;56.920;14.804;2022-08-24T13:01:06;1.30;;;0.70;;
18838;SDS011;9548;56.920;14.804;2022-08-24T13:03:36;1.40;;;0.90;;
18838;SDS011;9548;56.920;14.804;2022-08-24T13:06:06;3.72;;;0.98;;
18838;SDS011;9548;56.920;14.804;2022-08-24T13:08:37;2.08;;;0.95;;
18838;SDS011;9548;56.920;14.804;2022-08-24T13:11:07;2.47;;;1.00;;
18838;SDS011;9548;56.920;14.804;2022-08-24T13:13:39;0.80;;;0.77;;
18838;SDS011;9548;56.920;14.804;2022-08-24T13:16:42;0.90;;;0.90;;
18838;SDS011;9548;56.920;14.804;2022-08-24T13:19:17;2.97;;;0.93;;
18838;SDS011;9548;56.920;14.804;2022-08-24T13:21:58;1.52;;;0.80;;
18838;SDS011;9548;56.920;14.804;2022-08-24T13:30:30;1.75;;;0.90;;
18838;SDS011;9548;56.920;14.804;2022-08-24T13:33:03;1.00;;;0.90;;
18838;SDS011;9548;56.920;14.804;2022-08-24T13:38:24;2.42;;;1.30;;
18838;SDS011;9548;56.920;14.804;2022-08-24T13:41:11;2.67;;;1.00;;
18838;SDS011;9548;56.920;14.804;2022-08-24T13:43:58;1.10;;;1.00;;
18838;SDS011;9548;56.920;14.804;2022-08-24T13:46:37;1.40;;;1.10;;
18838;SDS011;9548;56.920;14.804;2022-08-24T13:49:16;1.70;;;1.00;;
18838;SDS011;9548;56.920;14.804;2022-08-24T13:51:55;1.45;;;1.00;;
18838;SDS011;9548;56.920;14.804;2022-08-24T13:54:36;1.80;;;1.20;;
18838;SDS011;9548;56.920;14.804;2022-08-24T14:00:09;1.60;;;1.10;;
18838;SDS011;9548;56.920;14.804;2022-08-24T14:03:13;1.85;;;1.30;;
18838;SDS011;9548;56.920;14.804;2022-08-24T14:05:56;2.25;;;1.13;;
18838;SDS011;9548;56.920;14.804;2022-08-24T14:08:34;4.15;;;1.20;;
18838;SDS011;9548;56.920;14.804;2022-08-24T14:11:12;3.13;;;1.25;;
18838;SDS011;9548;56.920;14.804;2022-08-24T14:13:50;2.05;;;1.30;;
18838;SDS011;9548;56.920;14.804;2022-08-24T14:16:34;1.23;;;1.13;;
18838;SDS011;9548;56.920;14.804;2022-08-24T14:19:30;1.45;;;1.35;;
18838;SDS011;9548;56.920;14.804;2022-08-24T14:22:11;3.63;;;1.25;;
18838;SDS011;9548;56.920;14.804;2022-08-24T14:24:46;1.42;;;1.25;;
18838;SDS011;9548;56.920;14.804;2022-08-24T14:27:32;3.38;;;1.40;;
18838;SDS011;9548;56.920;14.804;2022-08-24T14:33:07;1.38;;;1.13;;
18838;SDS011;9548;56.920;14.804;2022-08-24T14:35:55;1.65;;;1.20;;
18838;SDS011;9548;56.920;14.804;2022-08-24T14:38:37;2.83;;;1.20;;
18838;SDS011;9548;56.920;14.804;2022-08-24T14:41:20;3.67;;;0.95;;
18838;SDS011;9548;56.920;14.804;2022-08-24T14:47:18;1.52;;;1.40;;
18838;SDS011;9548;56.920;14.804;2022-08-24T14:49:56;1.95;;;1.52;;
18838;SDS011;9548;56.920;14.804;2022-08-24T14:52:43;2.55;;;1.33;;
18838;SDS011;9548;56.920;14.804;2022-08-24T14:55:18;1.40;;;1.30;;
18838;SDS011;9548;56.920;14.804;2022-08-24T14:58:07;3.50;;;1.13;;
18838;SDS011;9548;56.920;14.804;2022-08-24T15:00:50;1.52;;;1.40;;
18838;SDS011;9548;56.920;14.804;2022-08-24T15:06:28;2.83;;;1.35;;
18838;SDS011;9548;56.920;14.804;2022-08-24T15:09:07;1.15;;;1.00;;
18838;SDS011;9548;56.920;14.804;2022-08-24T15:11:37;2.75;;;1.00;;
18838;SDS011;9548;56.920;14.804;2022-08-24T15:14:08;2.78;;;1.10;;
18838;SDS011;9548;56.920;14.804;2022-08-24T15:16:46;2.08;;;1.20;;
18838;SDS011;9548;56.920;14.804;2022-08-24T15:19:19;1.95;;;1.00;;
18838;SDS011;9548;56.920;14.804;2022-08-24T15:21:51;2.72;;;1.00;;
18838;SDS011;9548;56.920;14.804;2022-08-24T15:24:25;2.33;;;1.00;;
18838;SDS011;9548;56.920;14.804;2022-08-24T15:27:05;1.77;;;1.10;;
18838;SDS011;9548;56.920;14.804;2022-08-24T15:29:47;1.83;;;1.10;;
18838;SDS011;9548;56.920;14.804;2022-08-24T15:32:18;1.65;;;1.20;;
18838;SDS011;9548;56.920;14.804;2022-08-24T15:34:48;2.58;;;1.00;;
18838;SDS011;9548;56.920;14.804;2022-08-24T15:37:24;5.50;;;1.05;;
18838;SDS011;9548;56.920;14.804;2022-08-24T15:39:53;1.48;;;0.80;;
18838;SDS011;9548;56.920;14.804;2022-08-24T15:42:20;0.80;;;0.80;;
18838;SDS011;9548;56.920;14.804;2022-08-24T15:44:49;3.42;;;1.00;;
18838;SDS011;9548;56.920;14.804;2022-08-24T15:47:24;5.00;;;1.00;;
18838;SDS011;9548;56.920;14.804;2022-08-24T15:49:54;1.40;;;0.75;;
18838;SDS011;9548;56.920;14.804;2022-08-24T15:55:27;3.67;;;0.80;;
18838;SDS011;9548;56.920;14.804;2022-08-24T15:58:11;4.43;;;1.10;;